createdAt,value
2017-10-15T08:55:27.980Z,22.20
2017-10-15T08:57:55.521Z,22.20
2017-10-15T09:00:23.079Z,22.20
2017-10-15T09:02:50.609Z,22.20
2017-10-15T09:05:18.118Z,22.20
2017-10-15T09:07:46.613Z,22.20
2017-10-15T09:10:15.630Z,22.10
2017-10-15T09:12:43.898Z,22.10
2017-10-15T09:15:12.185Z,22.10
2017-10-15T09:17:40.472Z,22.10
2017-10-15T09:20:09.946Z,22.00
2017-10-15T09:22:37.462Z,22.10
2017-10-15T09:25:04.982Z,22.10
2017-10-15T09:27:40.349Z,22.00
2017-10-15T09:30:07.879Z,22.00
2017-10-15T09:32:36.149Z,22.00
2017-10-15T09:35:04.417Z,22.00
2017-10-15T09:37:32.714Z,22.00
2017-10-15T09:40:00.209Z,22.00
2017-10-15T09:42:27.742Z,22.00
2017-10-15T09:44:55.265Z,22.00
2017-10-15T09:47:23.539Z,22.00
2017-10-15T09:49:51.839Z,22.00
2017-10-15T09:52:19.358Z,22.00
2017-10-15T09:54:46.879Z,22.00
2017-10-15T09:57:16.367Z,22.00
2017-10-15T09:59:43.886Z,22.00
2017-10-15T10:02:12.178Z,22.10
2017-10-15T10:04:40.451Z,22.10
2017-10-15T10:07:10.694Z,22.10
2017-10-15T10:09:38.193Z,22.10
2017-10-15T10:12:07.678Z,22.10
2017-10-15T10:14:35.182Z,22.10
2017-10-15T10:17:03.450Z,22.10
2017-10-15T10:19:31.750Z,22.20
2017-10-15T10:21:59.261Z,22.10
2017-10-15T10:24:26.791Z,22.20
2017-10-15T10:26:55.557Z,22.20
2017-10-15T10:29:23.229Z,22.20
2017-10-15T10:31:50.757Z,22.20
2017-10-15T10:34:19.026Z,22.20
2017-10-15T10:36:47.645Z,22.20
2017-10-15T10:39:15.602Z,22.20
2017-10-15T10:41:43.261Z,22.20
2017-10-15T10:44:10.906Z,22.20
2017-10-15T10:46:39.338Z,22.20
2017-10-15T10:49:06.890Z,22.30
2017-10-15T10:51:34.390Z,22.30
2017-10-15T10:54:02.684Z,22.30
2017-10-15T10:56:30.242Z,22.30
2017-10-15T10:58:57.746Z,22.30
2017-10-15T11:01:27.215Z,22.30
2017-10-15T11:03:54.734Z,22.30
2017-10-15T11:06:22.258Z,22.30
2017-10-15T11:08:49.770Z,22.30
2017-10-15T11:11:17.289Z,22.40
2017-10-15T11:13:45.578Z,22.40
2017-10-15T11:16:13.109Z,22.40
2017-10-15T11:18:40.842Z,22.40
2017-10-15T11:21:08.810Z,22.40
2017-10-15T11:23:36.589Z,22.40
2017-10-15T11:26:04.116Z,22.40
2017-10-15T11:28:31.694Z,22.40
2017-10-15T11:30:59.554Z,22.40
2017-10-15T11:33:27.127Z,22.50
2017-10-15T11:35:56.594Z,22.40
2017-10-15T11:38:24.379Z,22.50
2017-10-15T11:40:51.898Z,22.50
2017-10-15T11:43:20.315Z,22.50
2017-10-15T11:45:48.284Z,22.50
2017-10-15T11:48:16.435Z,22.50
2017-10-15T11:50:45.155Z,22.50
2017-10-15T11:53:13.721Z,22.50
2017-10-15T11:55:41.247Z,22.50
2017-10-15T11:58:10.464Z,22.60
2017-10-15T12:00:37.987Z,22.50
2017-10-15T12:03:06.627Z,22.60
2017-10-15T12:05:34.808Z,22.60
2017-10-15T12:08:03.782Z,22.60
2017-10-15T12:10:31.749Z,22.60
2017-10-15T12:12:59.965Z,22.60
2017-10-15T12:15:27.992Z,22.60
2017-10-15T12:17:55.858Z,22.60
2017-10-15T12:20:23.934Z,22.60
2017-10-15T12:22:51.793Z,22.70
2017-10-15T12:25:19.763Z,22.70
2017-10-15T12:27:48.584Z,22.60
2017-10-15T12:30:17.437Z,22.60
2017-10-15T12:32:46.285Z,22.70
2017-10-15T12:35:15.572Z,22.70
2017-10-15T12:37:43.889Z,22.70
2017-10-15T12:40:11.390Z,22.70
2017-10-15T12:42:39.846Z,22.70
2017-10-15T12:45:07.367Z,22.70
2017-10-15T12:47:35.630Z,22.70
2017-10-15T12:50:03.924Z,22.70
2017-10-15T12:52:31.433Z,22.70
2017-10-15T12:54:58.966Z,22.70
2017-10-15T12:57:27.422Z,22.70
2017-10-15T12:59:54.953Z,22.70
2017-10-15T13:02:23.255Z,22.70
2017-10-15T13:04:50.798Z,22.70
2017-10-15T13:07:19.076Z,22.70
2017-10-15T13:09:47.376Z,22.70
2017-10-15T13:12:14.876Z,22.60
2017-10-15T13:14:42.434Z,22.60
2017-10-15T13:17:09.929Z,22.60
2017-10-15T13:19:37.446Z,22.60
2017-10-15T13:22:04.946Z,22.70
2017-10-15T13:24:34.462Z,22.70
2017-10-15T13:27:01.964Z,22.70
2017-10-15T13:29:29.500Z,22.70
2017-10-15T13:31:57.950Z,22.60
2017-10-15T13:34:25.468Z,22.60
2017-10-15T13:36:54.474Z,22.60
2017-10-15T13:39:22.757Z,22.60
2017-10-15T13:41:50.278Z,22.60
2017-10-15T13:44:17.799Z,22.60
2017-10-15T13:46:46.318Z,22.60
2017-10-15T13:49:13.847Z,22.60
2017-10-15T13:51:41.345Z,22.60
2017-10-15T13:54:09.634Z,22.60
2017-10-15T13:56:37.899Z,22.60
2017-10-15T13:59:06.162Z,22.60
2017-10-15T14:01:33.688Z,22.60
2017-10-15T14:04:01.190Z,22.60
2017-10-15T14:06:29.473Z,22.60
2017-10-15T14:08:57.743Z,22.60
2017-10-15T14:11:26.038Z,22.60
2017-10-15T14:13:53.526Z,22.60
2017-10-15T14:16:21.053Z,22.60
2017-10-15T14:18:48.565Z,22.50
2017-10-15T14:21:16.082Z,22.60
2017-10-15T14:23:43.581Z,22.50
2017-10-15T14:26:11.102Z,22.50
2017-10-15T14:28:38.597Z,22.50
2017-10-15T14:31:06.121Z,22.50
2017-10-15T14:33:33.618Z,22.50
2017-10-15T14:36:01.149Z,22.50
2017-10-15T14:38:28.646Z,22.50
2017-10-15T14:40:56.940Z,22.50
2017-10-15T14:43:24.442Z,22.50
2017-10-15T14:45:51.960Z,22.50
2017-10-15T14:48:20.408Z,22.50
2017-10-15T14:50:48.698Z,22.50
2017-10-15T14:53:16.966Z,22.50
2017-10-15T14:55:45.254Z,22.50
2017-10-15T14:58:13.513Z,22.50
2017-10-15T15:00:41.806Z,22.50
2017-10-15T15:03:10.070Z,22.50
2017-10-15T15:05:38.361Z,22.50
2017-10-15T15:08:05.864Z,22.50
2017-10-15T15:10:33.382Z,22.50
2017-10-15T15:13:00.887Z,22.50
2017-10-15T15:15:28.418Z,22.50
2017-10-15T15:17:56.850Z,22.50
2017-10-15T15:20:25.137Z,22.50
2017-10-15T15:22:52.650Z,22.50
2017-10-15T15:25:22.120Z,22.50
2017-10-15T15:27:49.618Z,22.50
2017-10-15T15:30:17.141Z,22.50
2017-10-15T15:32:44.637Z,22.50
2017-10-15T15:35:12.162Z,22.50
2017-10-15T15:37:39.662Z,22.50
2017-10-15T15:40:07.945Z,22.50
2017-10-15T15:42:36.207Z,22.50
2017-10-15T15:45:04.511Z,22.50
2017-10-15T15:47:32.014Z,22.50
2017-10-15T15:49:59.528Z,22.50
2017-10-15T15:52:27.994Z,22.50
2017-10-15T15:54:56.294Z,22.50
2017-10-15T15:57:23.789Z,22.40
2017-10-15T15:59:51.310Z,22.40
2017-10-15T16:02:18.806Z,22.40
2017-10-15T16:04:46.324Z,22.40
2017-10-15T16:07:13.821Z,22.40
2017-10-15T16:09:41.342Z,22.40
2017-10-15T16:12:08.851Z,22.40
2017-10-15T16:14:37.137Z,22.40
2017-10-15T16:17:05.407Z,22.30
2017-10-15T16:19:34.865Z,22.30
2017-10-15T16:22:02.359Z,22.30
2017-10-15T16:24:30.642Z,22.30
2017-10-15T16:26:58.910Z,22.30
2017-10-15T16:29:27.201Z,22.30
2017-10-15T16:31:55.459Z,22.30
2017-10-15T16:34:24.487Z,22.20
2017-10-15T16:36:51.990Z,22.20
2017-10-15T16:39:19.515Z,22.30
2017-10-15T16:41:47.975Z,22.20
2017-10-15T16:44:15.509Z,22.20
2017-10-15T16:46:43.775Z,22.20
2017-10-15T16:49:12.199Z,22.20
2017-10-15T16:51:39.704Z,22.20
2017-10-15T16:54:08.949Z,22.20
2017-10-15T16:56:36.450Z,22.20
2017-10-15T16:59:03.971Z,22.20
2017-10-15T17:01:31.466Z,22.20
2017-10-15T17:03:58.982Z,22.10
2017-10-15T17:06:26.483Z,22.20
2017-10-15T17:08:54.018Z,22.20
2017-10-15T17:11:21.524Z,22.20
2017-10-15T17:13:49.810Z,22.20
2017-10-15T17:16:18.070Z,22.20
2017-10-15T17:18:46.361Z,22.20
2017-10-15T17:21:13.862Z,22.10
2017-10-15T17:23:41.390Z,22.10
2017-10-15T17:26:08.890Z,22.20
2017-10-15T17:28:36.446Z,22.10
2017-10-15T17:31:03.954Z,22.20
2017-10-15T17:33:32.422Z,22.20
2017-10-15T17:36:00.690Z,22.10
2017-10-15T17:38:28.970Z,22.10
2017-10-15T17:40:57.235Z,22.10
2017-10-15T17:43:25.514Z,22.10
2017-10-15T17:45:53.795Z,22.10
2017-10-15T17:48:22.087Z,22.10
2017-10-15T17:50:49.579Z,22.10
2017-10-15T17:53:17.123Z,22.10
2017-10-15T17:55:44.629Z,22.10
2017-10-15T17:58:12.917Z,22.10
2017-10-15T18:00:42.158Z,22.10
2017-10-15T18:03:09.683Z,22.10
2017-10-15T18:05:37.179Z,22.10
2017-10-15T18:08:04.693Z,22.20
2017-10-15T18:10:32.978Z,22.20
2017-10-15T18:13:02.460Z,22.10
2017-10-15T18:15:30.735Z,22.10
2017-10-15T18:17:59.026Z,22.10
2017-10-15T18:20:26.527Z,22.10
2017-10-15T18:22:54.054Z,22.10
2017-10-15T18:25:21.553Z,22.10
2017-10-15T18:27:50.583Z,22.10
2017-10-15T18:30:19.783Z,22.10
2017-10-15T18:32:47.312Z,22.10
2017-10-15T18:35:15.581Z,22.10
2017-10-15T18:37:43.093Z,22.10
2017-10-15T18:40:10.594Z,22.10
2017-10-15T18:42:39.626Z,22.10
2017-10-15T18:45:07.121Z,22.10
2017-10-15T18:47:34.617Z,22.10
2017-10-15T18:50:04.876Z,22.10
2017-10-15T18:52:32.370Z,22.10
2017-10-15T18:54:59.918Z,22.10
2017-10-15T18:57:27.422Z,22.10
2017-10-15T18:59:55.709Z,22.10
2017-10-15T19:02:23.261Z,22.10
2017-10-15T19:04:50.798Z,22.10
2017-10-15T19:07:19.062Z,22.10
2017-10-15T19:09:47.342Z,22.10
2017-10-15T19:12:15.609Z,22.00
2017-10-15T19:14:43.135Z,22.10
2017-10-15T19:17:10.634Z,22.10
2017-10-15T19:19:38.914Z,22.10
2017-10-15T19:22:07.190Z,22.10
2017-10-15T19:24:35.499Z,22.10
2017-10-15T19:27:03.946Z,22.10
2017-10-15T19:29:32.230Z,22.10
2017-10-15T19:32:00.493Z,22.10
2017-10-15T19:34:28.809Z,22.10
2017-10-15T19:36:56.342Z,22.10
2017-10-15T19:39:23.858Z,22.10
2017-10-15T19:41:51.389Z,22.20
2017-10-15T19:44:18.922Z,22.20
2017-10-15T19:46:46.472Z,22.20
2017-10-15T19:49:14.000Z,22.20
2017-10-15T19:51:42.266Z,22.10
2017-10-15T19:54:09.826Z,22.10
2017-10-15T19:56:37.327Z,22.10
2017-10-15T19:59:04.847Z,22.20
2017-10-15T20:01:33.122Z,22.20
2017-10-15T20:04:02.141Z,22.20
2017-10-15T20:06:30.406Z,22.20
2017-10-15T20:08:58.820Z,22.30
2017-10-15T20:11:26.343Z,22.20
2017-10-15T20:13:54.610Z,22.20
2017-10-15T20:16:22.877Z,22.30
2017-10-15T20:18:50.403Z,22.30
2017-10-15T20:21:17.904Z,22.30
2017-10-15T20:23:46.190Z,22.30
2017-10-15T20:26:14.459Z,22.30
2017-10-15T20:28:42.746Z,22.30
2017-10-15T20:31:10.243Z,22.30
2017-10-15T20:33:37.762Z,22.30
2017-10-15T20:36:05.262Z,22.30
2017-10-15T20:38:32.793Z,22.30
2017-10-15T20:41:00.291Z,22.30
2017-10-15T20:43:27.786Z,22.30
2017-10-15T20:45:56.071Z,22.40
2017-10-15T20:48:24.549Z,22.30
2017-10-15T20:50:52.077Z,22.30
2017-10-15T20:53:20.405Z,22.40
2017-10-15T20:55:47.906Z,22.40
2017-10-15T20:58:15.429Z,22.40
2017-10-15T21:00:42.931Z,22.40
2017-10-15T21:03:11.218Z,22.40
2017-10-15T21:05:39.482Z,22.40
2017-10-15T21:08:07.794Z,22.40
2017-10-15T21:10:35.290Z,22.40
2017-10-15T21:13:04.531Z,22.40
2017-10-15T21:15:32.034Z,22.40
2017-10-15T21:17:59.556Z,22.40
2017-10-15T21:20:27.062Z,22.40
2017-10-15T21:22:54.584Z,22.40
2017-10-15T21:25:23.046Z,22.40
2017-10-15T21:27:50.561Z,22.40
2017-10-15T21:30:18.064Z,22.40
2017-10-15T21:32:47.539Z,22.40
2017-10-15T21:35:15.806Z,22.40
2017-10-15T21:37:45.269Z,22.40
2017-10-15T21:40:12.766Z,22.40
2017-10-15T21:42:41.046Z,22.40
2017-10-15T21:45:09.306Z,22.40
2017-10-15T21:47:39.576Z,22.50
2017-10-15T21:50:07.077Z,22.40
2017-10-15T21:52:34.600Z,22.50
2017-10-15T21:55:02.127Z,22.40
2017-10-15T21:57:30.016Z,22.50
2017-10-15T21:59:57.619Z,22.50
2017-10-15T22:02:26.262Z,22.50
2017-10-15T22:04:53.761Z,22.40
2017-10-15T22:07:24.010Z,22.40
2017-10-15T22:09:52.286Z,22.50
2017-10-15T22:12:19.809Z,22.40
2017-10-15T22:14:47.415Z,22.50
2017-10-15T22:17:15.396Z,22.40
2017-10-15T22:19:43.363Z,22.40
2017-10-15T22:22:16.910Z,22.50
2017-10-15T22:24:45.199Z,22.40
2017-10-15T22:27:13.491Z,22.40
2017-10-15T22:29:41.275Z,22.40
2017-10-15T22:32:09.026Z,22.50
2017-10-15T22:34:36.801Z,22.40
2017-10-15T22:37:04.605Z,22.40
2017-10-15T22:39:33.288Z,22.40
2017-10-15T22:42:01.934Z,22.40
2017-10-15T22:44:29.903Z,22.40
2017-10-15T22:46:57.975Z,22.40
2017-10-15T22:49:25.941Z,22.40
2017-10-15T22:51:55.446Z,22.40
2017-10-15T22:54:24.332Z,22.40
2017-10-15T22:56:52.501Z,22.40
2017-10-15T22:59:20.813Z,22.40
2017-10-15T23:01:50.308Z,22.40
2017-10-15T23:04:19.072Z,22.40
2017-10-15T23:06:48.065Z,22.40
2017-10-15T23:09:16.097Z,22.40
2017-10-15T23:11:44.919Z,22.40
2017-10-15T23:14:12.533Z,22.40
2017-10-15T23:16:41.060Z,22.40
2017-10-15T23:19:08.708Z,22.40
2017-10-15T23:21:36.328Z,22.40
2017-10-15T23:24:05.170Z,22.40
2017-10-15T23:26:33.237Z,22.40
2017-10-15T23:29:01.001Z,22.40
2017-10-15T23:31:28.969Z,22.40
2017-10-15T23:33:57.125Z,22.40
2017-10-15T23:36:24.961Z,22.40
2017-10-15T23:38:52.871Z,22.40
2017-10-15T23:41:22.370Z,22.40
2017-10-15T23:43:49.867Z,22.40
2017-10-15T23:46:17.394Z,22.40
2017-10-15T23:48:46.183Z,22.40
2017-10-15T23:51:14.249Z,22.40
2017-10-15T23:53:41.786Z,22.40
2017-10-15T23:56:09.669Z,22.40
2017-10-15T23:58:38.664Z,22.40
